createdAt,value
2022-09-12T00:01:48.563Z,1.14
2022-09-12T00:04:14.944Z,1.22
2022-09-12T00:06:41.310Z,1.05
2022-09-12T00:09:07.690Z,1.10
2022-09-12T00:11:34.062Z,1.07
2022-09-12T00:14:00.419Z,1.18
2022-09-12T00:16:26.816Z,1.04
2022-09-12T00:18:53.184Z,1.09
2022-09-12T00:21:19.553Z,1.17
2022-09-12T00:23:45.939Z,1.15
2022-09-12T00:26:12.301Z,1.16
2022-09-12T00:28:38.681Z,1.09
2022-09-12T00:31:05.031Z,1.04
2022-09-12T00:33:31.399Z,1.25
2022-09-12T00:35:57.774Z,1.21
2022-09-12T00:38:24.139Z,1.14
2022-09-12T00:40:50.488Z,1.10
2022-09-12T00:43:16.845Z,1.19
2022-09-12T00:45:43.278Z,1.16
2022-09-12T00:48:09.778Z,1.30
2022-09-12T00:50:36.138Z,1.11
2022-09-12T00:53:02.487Z,1.23
2022-09-12T00:55:28.845Z,1.06
2022-09-12T00:57:55.196Z,1.07
2022-09-12T01:00:21.553Z,1.10
2022-09-12T01:02:47.915Z,1.23
2022-09-12T01:05:14.283Z,1.01
2022-09-12T01:07:40.648Z,1.06
2022-09-12T01:10:07.014Z,1.04
2022-09-12T01:12:33.386Z,1.04
2022-09-12T01:14:59.736Z,1.12
2022-09-12T01:17:26.095Z,1.02
2022-09-12T01:19:52.456Z,0.97
2022-09-12T01:22:18.804Z,1.08
2022-09-12T01:24:45.152Z,1.16
2022-09-12T01:27:11.509Z,1.10
2022-09-12T01:29:37.870Z,1.03
2022-09-12T01:32:04.278Z,1.06
2022-09-12T01:34:30.747Z,1.13
2022-09-12T01:36:57.106Z,1.06
2022-09-12T01:39:23.474Z,1.05
2022-09-12T01:41:49.851Z,1.08
2022-09-12T01:44:16.210Z,0.99
2022-09-12T01:46:42.582Z,1.19
2022-09-12T01:49:08.941Z,1.13
2022-09-12T01:51:35.315Z,1.11
2022-09-12T01:54:01.680Z,1.13
2022-09-12T01:56:28.036Z,1.11
2022-09-12T01:58:54.402Z,1.04
2022-09-12T02:01:20.785Z,1.10
2022-09-12T02:03:47.161Z,1.18
2022-09-12T02:06:13.522Z,0.97
2022-09-12T02:08:39.872Z,1.15
2022-09-12T02:11:06.246Z,1.14
2022-09-12T02:13:32.595Z,1.10
2022-09-12T02:15:58.977Z,1.15
2022-09-12T02:18:25.353Z,1.17
2022-09-12T02:20:51.723Z,1.15
2022-09-12T02:23:18.078Z,1.16
2022-09-12T02:25:44.436Z,1.14
2022-09-12T02:28:10.806Z,1.05
2022-09-12T02:30:37.196Z,1.12
2022-09-12T02:33:03.586Z,1.21
2022-09-12T02:35:29.936Z,1.00
2022-09-12T02:37:56.307Z,1.03
2022-09-12T02:40:22.742Z,1.11
2022-09-12T02:42:49.130Z,1.03
2022-09-12T02:45:15.497Z,0.95
2022-09-12T02:47:41.848Z,0.99
2022-09-12T02:50:08.217Z,1.11
2022-09-12T02:52:34.567Z,1.10
2022-09-12T02:55:00.937Z,1.09
2022-09-12T02:57:27.293Z,1.08
2022-09-12T02:59:53.650Z,1.04
2022-09-12T03:02:20.036Z,1.11
2022-09-12T03:04:46.402Z,1.08
2022-09-12T03:07:12.752Z,1.10
2022-09-12T03:09:39.148Z,1.04
2022-09-12T03:12:05.514Z,1.11
2022-09-12T03:14:31.874Z,1.07
2022-09-12T03:16:58.246Z,1.17
2022-09-12T03:19:24.598Z,0.96
2022-09-12T03:21:50.947Z,1.06
2022-09-12T03:24:17.312Z,1.12
2022-09-12T03:26:43.677Z,1.04
2022-09-12T03:29:10.036Z,0.97
2022-09-12T03:31:36.401Z,1.01
2022-09-12T03:34:02.757Z,1.10
2022-09-12T03:36:29.110Z,1.04
2022-09-12T03:38:55.485Z,1.01
2022-09-12T03:41:21.839Z,1.11
2022-09-12T03:43:48.191Z,1.24
2022-09-12T03:46:14.559Z,1.07
2022-09-12T03:48:40.929Z,1.15
2022-09-12T03:51:07.282Z,1.00
2022-09-12T03:53:33.652Z,0.98
2022-09-12T03:56:00.007Z,1.04
2022-09-12T03:58:26.357Z,1.06
2022-09-12T04:00:52.757Z,0.96
2022-09-12T04:03:19.157Z,1.00
2022-09-12T04:05:45.527Z,1.03
2022-09-12T04:08:11.889Z,1.06
2022-09-12T04:10:38.331Z,1.21
2022-09-12T04:13:04.680Z,1.05
2022-09-12T04:15:31.032Z,1.03
2022-09-12T04:17:57.393Z,1.10
2022-09-12T04:20:23.745Z,1.08
2022-09-12T04:22:50.109Z,1.14
2022-09-12T04:25:16.465Z,1.02
2022-09-12T04:27:42.825Z,1.06
2022-09-12T04:30:09.176Z,1.09
2022-09-12T04:32:35.532Z,0.92
2022-09-12T04:35:01.902Z,0.90
2022-09-12T04:37:28.262Z,0.90
2022-09-12T04:39:54.633Z,0.96
2022-09-12T04:42:21.016Z,1.03
2022-09-12T04:44:47.368Z,0.92
2022-09-12T04:47:13.739Z,1.07
2022-09-12T04:49:40.098Z,0.95
2022-09-12T04:52:06.458Z,1.05
2022-09-12T04:54:32.834Z,0.96
2022-09-12T04:56:59.195Z,1.07
2022-09-12T04:59:25.546Z,1.14
2022-09-12T05:01:51.959Z,1.01
2022-09-12T05:04:18.354Z,0.99
2022-09-12T05:06:44.710Z,0.92
2022-09-12T05:09:11.079Z,1.00
2022-09-12T05:12:02.787Z,1.06
2022-09-12T05:14:23.789Z,0.95
2022-09-12T05:16:50.206Z,0.83
2022-09-12T05:19:16.723Z,0.98
2022-09-12T05:21:43.082Z,1.01
2022-09-12T05:24:09.446Z,1.10
2022-09-12T05:26:35.826Z,1.00
2022-09-12T05:29:02.189Z,1.10
2022-09-12T05:31:28.555Z,1.10
2022-09-12T05:33:54.915Z,1.01
2022-09-12T05:36:21.272Z,1.11
2022-09-12T05:38:47.627Z,1.12
2022-09-12T05:41:18.257Z,1.03
2022-09-12T05:43:46.298Z,0.96
2022-09-12T05:46:12.690Z,1.00
2022-09-12T05:48:39.057Z,1.05
2022-09-12T05:51:05.408Z,0.96
2022-09-12T05:53:31.821Z,0.99
2022-09-12T05:55:58.199Z,1.16
2022-09-12T05:58:24.555Z,1.07
2022-09-12T06:00:50.919Z,1.00
2022-09-12T06:03:17.270Z,1.09
2022-09-12T06:05:46.608Z,1.06
2022-09-12T06:08:15.150Z,1.12
2022-09-12T06:10:41.499Z,1.03
2022-09-12T06:13:07.869Z,0.95
2022-09-12T06:15:34.221Z,1.16
2022-09-12T06:18:00.577Z,0.90
2022-09-12T06:20:27.059Z,0.74
2022-09-12T06:22:53.493Z,1.08
2022-09-12T06:25:19.857Z,1.12
2022-09-12T06:27:46.310Z,0.99
2022-09-12T06:30:12.661Z,0.99
2022-09-12T06:32:39.025Z,1.14
2022-09-12T06:35:05.387Z,1.07
2022-09-12T06:37:31.751Z,1.06
2022-09-12T06:39:58.224Z,1.10
2022-09-12T06:42:24.870Z,1.06
2022-09-12T06:44:51.294Z,0.97
2022-09-12T06:47:17.674Z,0.95
2022-09-12T06:49:44.028Z,1.08
2022-09-12T06:52:10.380Z,1.08
2022-09-12T06:54:36.739Z,1.06
2022-09-12T06:57:03.088Z,0.90
2022-09-12T06:59:29.508Z,1.10
2022-09-12T07:01:55.968Z,1.13
2022-09-12T07:04:22.401Z,1.06
2022-09-12T07:06:48.765Z,1.07
2022-09-12T07:09:15.127Z,1.20
2022-09-12T07:11:41.500Z,1.10
2022-09-12T07:14:07.873Z,0.95
2022-09-12T07:16:34.279Z,0.97
2022-09-12T07:19:00.654Z,1.11
2022-09-12T07:21:27.016Z,1.01
2022-09-12T07:23:53.385Z,0.97
2022-09-12T07:26:19.736Z,0.98
2022-09-12T07:28:46.114Z,0.98
2022-09-12T07:31:12.527Z,0.99
2022-09-12T07:33:38.909Z,1.05
2022-09-12T07:36:05.370Z,1.05
2022-09-12T07:38:31.733Z,1.22
2022-09-12T07:40:58.121Z,1.08
2022-09-12T07:43:24.480Z,1.06
2022-09-12T07:45:50.898Z,1.21
2022-09-12T07:48:17.304Z,1.09
2022-09-12T07:50:45.197Z,1.01
2022-09-12T07:53:11.630Z,1.18
2022-09-12T07:55:37.988Z,1.17
2022-09-12T07:58:04.351Z,1.03
2022-09-12T08:00:30.696Z,1.08
2022-09-12T08:02:57.139Z,1.11
2022-09-12T08:05:23.537Z,1.11
2022-09-12T08:07:49.889Z,0.99
2022-09-12T08:10:16.259Z,1.10
2022-09-12T08:12:42.627Z,1.03
2022-09-12T08:15:08.975Z,1.39
2022-09-12T08:17:35.341Z,1.72
2022-09-12T08:20:01.806Z,2.11
2022-09-12T08:22:28.169Z,2.66
2022-09-12T08:24:54.528Z,2.66
2022-09-12T08:27:20.899Z,2.45
2022-09-12T08:29:47.260Z,2.68
2022-09-12T08:32:13.620Z,2.61
2022-09-12T08:34:39.996Z,2.81
2022-09-12T08:37:06.379Z,2.39
2022-09-12T08:39:32.747Z,2.64
2022-09-12T08:41:59.147Z,2.62
2022-09-12T08:44:25.564Z,2.49
2022-09-12T08:46:51.921Z,2.69
2022-09-12T08:49:18.288Z,2.63
2022-09-12T08:51:44.657Z,2.70
2022-09-12T08:54:11.004Z,2.52
2022-09-12T08:56:37.373Z,2.50
2022-09-12T08:59:03.733Z,2.86
2022-09-12T09:01:30.151Z,2.52
2022-09-12T09:03:56.540Z,2.54
2022-09-12T09:06:22.896Z,2.67
2022-09-12T09:08:49.269Z,2.89
2022-09-12T09:11:15.634Z,2.91
2022-09-12T09:13:42.030Z,3.12
2022-09-12T09:16:08.498Z,2.83
2022-09-12T09:18:34.864Z,2.78
2022-09-12T09:21:01.231Z,2.89
2022-09-12T09:23:27.696Z,3.02
2022-09-12T09:25:54.055Z,2.97
2022-09-12T09:28:20.409Z,2.86
2022-09-12T09:30:46.796Z,2.77
2022-09-12T09:33:13.204Z,2.79
2022-09-12T09:35:39.692Z,2.79
2022-09-12T09:38:06.056Z,3.03
2022-09-12T09:40:32.426Z,2.99
2022-09-12T09:42:58.797Z,2.86
2022-09-12T09:45:25.175Z,2.87
2022-09-12T09:47:51.537Z,3.14
2022-09-12T09:50:17.897Z,2.82
2022-09-12T09:52:44.273Z,2.85
2022-09-12T09:55:10.643Z,3.04
2022-09-12T09:57:37.004Z,3.04
2022-09-12T10:00:03.367Z,2.86
2022-09-12T10:02:29.804Z,2.74
2022-09-12T10:04:56.203Z,3.01
2022-09-12T10:07:22.589Z,2.80
2022-09-12T10:09:48.958Z,2.56
2022-09-12T10:12:15.313Z,2.73
2022-09-12T10:14:41.774Z,2.94
2022-09-12T10:17:08.137Z,3.02
2022-09-12T10:19:34.492Z,3.16
2022-09-12T10:22:00.861Z,2.95
2022-09-12T10:24:27.237Z,2.91
2022-09-12T10:26:56.819Z,2.88
2022-09-12T10:29:23.519Z,3.09
2022-09-12T10:31:49.889Z,3.12
2022-09-12T10:34:16.261Z,3.17
2022-09-12T10:36:42.620Z,2.96
2022-09-12T10:39:08.972Z,2.76
2022-09-12T10:41:35.351Z,2.93
2022-09-12T10:44:01.722Z,2.97
2022-09-12T10:46:28.199Z,3.02
2022-09-12T10:48:54.604Z,2.73
2022-09-12T10:51:20.978Z,2.94
2022-09-12T10:53:47.516Z,2.67
2022-09-12T10:56:14.037Z,2.97
2022-09-12T10:58:40.409Z,2.67
2022-09-12T11:01:06.817Z,2.62
2022-09-12T11:03:33.275Z,2.43
2022-09-12T11:05:59.682Z,2.52
2022-09-12T11:08:26.045Z,2.61
2022-09-12T11:10:52.406Z,2.78
2022-09-12T11:13:18.787Z,2.69
2022-09-12T11:15:45.168Z,2.64
2022-09-12T11:18:11.555Z,2.82
2022-09-12T11:20:37.921Z,2.91
2022-09-12T11:23:04.272Z,2.87
2022-09-12T11:25:30.628Z,2.74
2022-09-12T11:27:57.004Z,2.74
2022-09-12T11:30:23.365Z,2.82
2022-09-12T11:32:49.723Z,2.76
2022-09-12T11:35:17.658Z,2.82
2022-09-12T11:37:44.213Z,2.68
2022-09-12T11:40:10.655Z,2.84
2022-09-12T11:42:37.097Z,2.93
2022-09-12T11:45:03.464Z,2.96
2022-09-12T11:47:29.815Z,3.12
2022-09-12T11:49:56.167Z,3.03
2022-09-12T11:52:22.538Z,3.10
2022-09-12T11:54:53.363Z,3.14
2022-09-12T11:57:20.030Z,3.23
2022-09-12T11:59:46.398Z,3.25
2022-09-12T12:02:12.815Z,3.24
2022-09-12T12:04:39.303Z,3.54
2022-09-12T12:07:05.674Z,3.66
2022-09-12T12:09:32.027Z,3.31
2022-09-12T12:11:58.389Z,3.39
2022-09-12T12:14:24.765Z,3.43
2022-09-12T12:16:51.289Z,3.14
2022-09-12T12:19:17.653Z,3.50
2022-09-12T12:21:44.009Z,3.28
2022-09-12T12:24:10.382Z,3.25
2022-09-12T12:26:36.747Z,3.21
2022-09-12T12:29:03.098Z,3.35
2022-09-12T12:31:29.519Z,3.35
2022-09-12T12:33:55.943Z,3.45
2022-09-12T12:36:22.302Z,3.22
2022-09-12T12:38:48.675Z,3.18
2022-09-12T12:41:15.148Z,3.20
2022-09-12T12:43:41.571Z,3.14
2022-09-12T12:46:08.068Z,3.09
2022-09-12T12:48:34.509Z,2.84
2022-09-12T12:51:00.865Z,2.78
2022-09-12T12:53:27.225Z,2.85
2022-09-12T12:55:53.591Z,2.85
2022-09-12T12:58:20.050Z,3.01
2022-09-12T13:00:46.419Z,3.05
2022-09-12T13:03:12.781Z,2.82
2022-09-12T13:05:39.240Z,3.07
2022-09-12T13:08:05.611Z,3.04
2022-09-12T13:10:31.964Z,2.84
2022-09-12T13:12:58.334Z,2.87
2022-09-12T13:15:24.787Z,2.96
2022-09-12T13:17:51.201Z,2.89
2022-09-12T13:20:27.790Z,2.75
2022-09-12T13:22:54.929Z,2.66
2022-09-12T13:25:21.388Z,2.86
2022-09-12T13:27:47.753Z,2.72
2022-09-12T13:30:14.108Z,2.71
2022-09-12T13:32:40.477Z,2.64
2022-09-12T13:35:06.832Z,2.64
2022-09-12T13:37:33.199Z,2.67
2022-09-12T13:39:59.692Z,2.64
2022-09-12T13:42:26.126Z,2.50
2022-09-12T13:44:52.485Z,2.45
2022-09-12T13:47:18.958Z,2.61
2022-09-12T13:49:45.315Z,2.48
2022-09-12T13:52:11.681Z,2.57
2022-09-12T13:54:38.051Z,2.49
2022-09-12T13:57:04.412Z,2.50
2022-09-12T13:59:30.798Z,2.66
2022-09-12T14:01:57.260Z,2.53
2022-09-12T14:04:23.639Z,2.59
2022-09-12T14:06:50.110Z,2.64
2022-09-12T14:09:16.479Z,2.84
2022-09-12T14:11:42.846Z,2.65
2022-09-12T14:14:09.217Z,3.05
2022-09-12T14:16:35.586Z,2.84
2022-09-12T14:19:01.960Z,2.78
2022-09-12T14:21:28.340Z,2.78
2022-09-12T14:23:54.694Z,2.90
2022-09-12T14:26:21.044Z,3.07
2022-09-12T14:28:47.580Z,3.06
2022-09-12T14:31:14.052Z,2.91
2022-09-12T14:33:40.433Z,2.81
2022-09-12T14:36:06.803Z,2.94
2022-09-12T14:38:33.200Z,2.82
2022-09-12T14:40:59.561Z,2.86
2022-09-12T14:43:25.928Z,3.08
2022-09-12T14:45:52.330Z,3.00
2022-09-12T14:48:18.717Z,2.83
2022-09-12T14:50:45.086Z,2.69
2022-09-12T14:53:11.549Z,2.76
2022-09-12T14:55:37.918Z,2.75
2022-09-12T14:58:04.280Z,2.66
2022-09-12T15:00:30.662Z,2.88
2022-09-12T15:02:58.440Z,2.70
2022-09-12T15:05:26.192Z,2.78
2022-09-12T15:07:53.523Z,2.72
2022-09-12T15:10:19.888Z,2.46
2022-09-12T15:12:46.239Z,2.58
2022-09-12T15:15:12.609Z,2.59
2022-09-12T15:17:38.976Z,2.75
2022-09-12T15:20:05.337Z,2.55
2022-09-12T15:22:31.714Z,2.44
2022-09-12T15:24:58.082Z,2.66
2022-09-12T15:27:24.451Z,2.67
2022-09-12T15:29:50.835Z,2.42
2022-09-12T15:32:17.202Z,2.33
2022-09-12T15:34:43.563Z,2.44
2022-09-12T15:37:09.942Z,2.33
2022-09-12T15:39:36.307Z,2.55
2022-09-12T15:42:02.674Z,2.45
2022-09-12T15:44:29.053Z,2.45
2022-09-12T15:46:55.415Z,2.39
2022-09-12T15:49:21.782Z,2.47
2022-09-12T15:51:48.152Z,2.43
2022-09-12T15:54:14.508Z,2.39
2022-09-12T15:56:40.865Z,2.44
2022-09-12T15:59:07.245Z,2.57
2022-09-12T16:01:33.662Z,2.44
2022-09-12T16:04:00.077Z,2.17
2022-09-12T16:06:26.448Z,2.24
2022-09-12T16:08:52.826Z,2.30
2022-09-12T16:11:19.190Z,2.36
2022-09-12T16:13:45.556Z,2.39
2022-09-12T16:16:11.967Z,2.30
2022-09-12T16:18:38.444Z,2.13
2022-09-12T16:21:04.809Z,2.21
2022-09-12T16:23:31.173Z,2.41
2022-09-12T16:25:57.553Z,2.26
2022-09-12T16:28:24.159Z,2.30
2022-09-12T16:30:50.557Z,2.32
2022-09-12T16:33:16.942Z,2.13
2022-09-12T16:35:43.318Z,2.12
2022-09-12T16:38:09.686Z,2.19
2022-09-12T16:40:36.075Z,2.32
2022-09-12T16:43:02.433Z,2.33
2022-09-12T16:45:28.798Z,2.27
2022-09-12T16:47:55.172Z,2.27
2022-09-12T16:50:21.523Z,2.09
2022-09-12T16:52:47.876Z,2.15
2022-09-12T16:55:14.250Z,2.20
2022-09-12T16:57:40.626Z,2.20
2022-09-12T17:00:06.981Z,2.22
2022-09-12T17:02:33.376Z,2.15
2022-09-12T17:04:59.766Z,2.23
2022-09-12T17:07:26.128Z,2.03
2022-09-12T17:09:52.498Z,2.13
2022-09-12T17:12:18.856Z,2.04
2022-09-12T17:14:45.221Z,1.96
2022-09-12T17:17:11.576Z,2.21
2022-09-12T17:19:37.947Z,2.28
2022-09-12T17:22:04.303Z,2.43
2022-09-12T17:24:30.663Z,2.33
2022-09-12T17:26:57.148Z,2.57
2022-09-12T17:29:23.526Z,2.70
2022-09-12T17:31:49.877Z,2.91
2022-09-12T17:34:16.253Z,2.71
2022-09-12T17:36:42.617Z,2.88
2022-09-12T17:39:08.967Z,2.85
2022-09-12T17:41:35.335Z,2.97
2022-09-12T17:44:01.703Z,2.87
2022-09-12T17:46:28.104Z,2.97
2022-09-12T17:48:54.475Z,2.96
2022-09-12T17:51:20.838Z,3.07
2022-09-12T17:53:47.281Z,3.05
2022-09-12T17:56:13.699Z,3.07
2022-09-12T17:58:40.064Z,2.85
2022-09-12T18:01:06.425Z,3.01
2022-09-12T18:03:32.785Z,3.08
2022-09-12T18:05:59.151Z,3.04
2022-09-12T18:08:25.499Z,2.83
2022-09-12T18:10:51.872Z,3.25
2022-09-12T18:13:18.230Z,3.92
2022-09-12T18:15:44.655Z,5.17
2022-09-12T18:18:11.068Z,8.50
2022-09-12T18:20:37.454Z,37.59
2022-09-12T18:23:03.840Z,107.29
2022-09-12T18:25:30.212Z,175.98
2022-09-12T18:27:56.601Z,137.46
2022-09-12T18:30:22.988Z,105.60
2022-09-12T18:32:49.378Z,104.22
2022-09-12T18:35:15.749Z,93.92
2022-09-12T18:37:42.125Z,80.43
2022-09-12T18:40:08.610Z,70.25
2022-09-12T18:42:35.015Z,67.23
2022-09-12T18:45:01.391Z,63.14
2022-09-12T18:47:27.770Z,55.47
2022-09-12T18:49:54.145Z,52.39
2022-09-12T18:52:20.544Z,49.69
2022-09-12T18:54:46.911Z,46.26
2022-09-12T18:57:13.296Z,43.16
2022-09-12T18:59:39.661Z,42.52
2022-09-12T19:02:06.091Z,40.64
2022-09-12T19:04:32.513Z,38.05
2022-09-12T19:06:58.881Z,37.18
2022-09-12T19:09:25.262Z,36.36
2022-09-12T19:11:51.652Z,35.00
2022-09-12T19:14:18.015Z,33.16
2022-09-12T19:16:44.489Z,32.55
2022-09-12T19:19:10.853Z,31.85
2022-09-12T19:21:37.287Z,30.49
2022-09-12T19:24:03.686Z,29.14
2022-09-12T19:26:30.081Z,28.72
2022-09-12T19:28:56.444Z,27.27
2022-09-12T19:31:22.842Z,26.91
2022-09-12T19:33:49.437Z,25.31
2022-09-12T19:36:40.842Z,24.89
2022-09-12T19:39:02.261Z,24.27
2022-09-12T19:41:28.632Z,23.29
2022-09-12T19:43:54.997Z,22.67
2022-09-12T19:46:21.569Z,21.79
2022-09-12T19:48:48.088Z,21.24
2022-09-12T19:51:14.614Z,20.21
2022-09-12T19:53:41.011Z,19.87
2022-09-12T19:56:07.382Z,19.86
2022-09-12T19:58:33.748Z,18.68
2022-09-12T20:01:00.125Z,18.13
2022-09-12T20:03:26.498Z,18.25
2022-09-12T20:05:52.881Z,17.24
2022-09-12T20:08:22.055Z,16.37
2022-09-12T20:10:48.431Z,15.37
2022-09-12T20:13:14.835Z,14.89
2022-09-12T20:15:41.242Z,14.44
2022-09-12T20:18:07.646Z,13.75
2022-09-12T20:20:34.017Z,13.32
2022-09-12T20:23:00.395Z,13.29
2022-09-12T20:25:26.779Z,12.49
2022-09-12T20:27:56.960Z,12.23
2022-09-12T20:30:25.868Z,12.32
2022-09-12T20:32:52.243Z,11.52
2022-09-12T20:35:18.614Z,11.49
2022-09-12T20:37:44.986Z,11.09
2022-09-12T20:40:11.428Z,10.61
2022-09-12T20:42:37.856Z,10.30
2022-09-12T20:45:04.218Z,9.83
2022-09-12T20:47:30.610Z,9.92
2022-09-12T20:49:56.977Z,9.30
2022-09-12T20:52:23.338Z,8.99
2022-09-12T20:54:49.703Z,9.10
2022-09-12T20:57:16.059Z,8.78
2022-09-12T20:59:42.442Z,8.44
2022-09-12T21:02:08.856Z,8.73
2022-09-12T21:04:35.281Z,8.16
2022-09-12T21:07:01.633Z,8.15
2022-09-12T21:09:27.981Z,8.10
2022-09-12T21:11:54.363Z,7.77
2022-09-12T21:14:20.726Z,7.51
2022-09-12T21:16:47.081Z,7.49
2022-09-12T21:19:13.463Z,7.46
2022-09-12T21:21:39.834Z,7.24
2022-09-12T21:24:06.193Z,7.11
2022-09-12T21:26:32.560Z,7.14
2022-09-12T21:28:58.921Z,6.67
2022-09-12T21:31:25.369Z,6.73
2022-09-12T21:33:51.880Z,6.60
2022-09-12T21:36:18.237Z,6.38
2022-09-12T21:38:44.602Z,6.27
2022-09-12T21:41:10.965Z,6.28
2022-09-12T21:43:37.362Z,6.07
2022-09-12T21:46:03.823Z,5.84
2022-09-12T21:48:30.226Z,6.26
2022-09-12T21:50:56.606Z,6.02
2022-09-12T21:53:22.974Z,5.98
2022-09-12T21:55:49.327Z,5.74
2022-09-12T21:58:15.691Z,5.78
2022-09-12T22:00:42.107Z,5.50
2022-09-12T22:03:08.493Z,5.41
2022-09-12T22:05:34.948Z,5.09
2022-09-12T22:08:01.311Z,5.24
2022-09-12T22:10:27.677Z,5.16
2022-09-12T22:12:54.053Z,4.92
2022-09-12T22:15:40.218Z,5.26
2022-09-12T22:18:06.781Z,5.04
2022-09-12T22:20:33.133Z,4.82
2022-09-12T22:22:59.495Z,4.85
2022-09-12T22:25:25.884Z,4.86
2022-09-12T22:27:52.245Z,4.65
2022-09-12T22:30:18.617Z,4.46
2022-09-12T22:32:44.976Z,4.85
2022-09-12T22:35:11.341Z,4.71
2022-09-12T22:37:37.718Z,4.30
2022-09-12T22:40:04.160Z,4.54
2022-09-12T22:42:30.578Z,4.38
2022-09-12T22:44:56.955Z,4.40
2022-09-12T22:47:23.321Z,4.12
2022-09-12T22:49:49.672Z,4.35
2022-09-12T22:52:16.050Z,4.38
2022-09-12T22:54:42.408Z,4.25
2022-09-12T22:57:08.764Z,4.26
2022-09-12T22:59:35.136Z,4.13
2022-09-12T23:02:01.513Z,4.24
2022-09-12T23:04:27.875Z,4.23
2022-09-12T23:06:54.248Z,4.11
2022-09-12T23:09:20.610Z,3.88
2022-09-12T23:11:46.982Z,4.07
2022-09-12T23:14:13.353Z,3.84
2022-09-12T23:16:39.773Z,3.71
2022-09-12T23:19:06.147Z,3.62
2022-09-12T23:21:32.526Z,3.77
2022-09-12T23:23:58.885Z,3.69
2022-09-12T23:26:25.246Z,3.73
2022-09-12T23:28:51.619Z,3.58
2022-09-12T23:31:17.988Z,3.70
2022-09-12T23:33:44.362Z,3.76
2022-09-12T23:36:10.822Z,3.69
2022-09-12T23:38:37.212Z,3.91
2022-09-12T23:41:03.613Z,3.93
2022-09-12T23:43:29.989Z,3.68
2022-09-12T23:45:56.390Z,3.64
2022-09-12T23:48:22.807Z,3.48
2022-09-12T23:50:49.172Z,3.70
2022-09-12T23:53:15.537Z,3.56
2022-09-12T23:55:41.990Z,3.62
2022-09-12T23:58:08.387Z,3.54
